LQSA/SJJ METAR and TAF weather

Enter ICAO airport designator
Station Type Date Time Source
LQSA METAR 2019/04/19 10:00 UTC NOAA

LQSA 191000Z VRB02KT 9999 FEW033 BKN062 14/06 Q1029 NOSIG


Station Type Date Time Source
LQSA Decoded METAR 2019/04/19 10:00 UTC NOAA

Sarajevo, Bosnia and Herzegovina (LQSA) 43-49N 018-20E 510M
Apr 19, 2019 - 06:00 AM EDT / 2019.04.19 1000 UTC
Wind: Variable at 2 MPH (2 KT):0
Visibility: greater than 7 mile(s):0
Sky conditions: mostly cloudy
Temperature: 57 F (14 C)
Dew Point: 42 F (6 C)
Relative Humidity: 58%
Pressure (altimeter): 30.39 in. Hg (1029 hPa)
ob: LQSA 191000Z VRB02KT 9999 FEW033 BKN062 14/06 Q1029 NOSIG
cycle: 10

Station Type Date Time Source
LQSA TAF 2019/04/19 06:06 UTC NOAA

TAF TAF LQSA 190500Z 1906/2006 VRB02KT 9999 SCT050 TX18/1913Z TN03/2005Z

Example: see airport list